Imbituva, Brazil
Current Conditions -  °F | °C
As of 5:00 PM on Thursday 18 Dec 2014 (Local Time) from SBBI Reporting Station
Thunderstorm Thunderstorm  
Wind Chill: 75°   Ceiling: Unl
Heat Index: 75°   Visibility: 6mi
Dew Point: 64°   Wind: 6mph
Humidity: 69%   Direction: 100°E
Pressure: 29.91"   Gusts: NA
Location:  25.23°S, 50.6°W
Report Text: SBBI 181900Z 10005KT 9999 TS VCSH SCT014 FEW050CB SCT070 24/18 Q1013
Loading
Personal Weather Stations






























Interactive Weather Map New forecast layout! Learn more

10-Day Weather Forecast

Advertisements
Track Severe Weather on mobile